createdAt,value
2019-03-10T00:00:12.308Z,4.5
2019-03-10T00:01:12.296Z,4.52
2019-03-10T00:02:12.982Z,4.58
2019-03-10T00:03:12.281Z,4.58
2019-03-10T00:04:12.251Z,4.54
2019-03-10T00:05:12.240Z,4.51
2019-03-10T00:06:12.230Z,4.5
2019-03-10T00:07:12.210Z,4.5
2019-03-10T00:08:12.936Z,4.52
2019-03-10T00:09:12.179Z,4.48
2019-03-10T00:10:12.169Z,4.5
2019-03-10T00:11:12.149Z,4.5
2019-03-10T00:12:12.135Z,4.47
2019-03-10T00:13:12.138Z,4.5
2019-03-10T00:14:12.110Z,4.4
2019-03-10T00:15:12.090Z,4.42
2019-03-10T00:16:12.086Z,4.33
2019-03-10T00:17:12.061Z,4.45
2019-03-10T00:18:12.045Z,4.3
2019-03-10T00:19:12.031Z,4.4
2019-03-10T00:20:12.017Z,4.26
2019-03-10T00:21:12.010Z,4.36
2019-03-10T00:22:11.748Z,4.36
2019-03-10T00:23:11.973Z,4.36
2019-03-10T00:24:11.962Z,4.24
2019-03-10T00:25:11.945Z,4.27
2019-03-10T00:26:11.956Z,4.27
2019-03-10T00:27:11.931Z,4.3
2019-03-10T00:28:11.905Z,4.33
2019-03-10T00:29:11.891Z,4.27
2019-03-10T00:30:11.870Z,4.3
2019-03-10T00:31:11.856Z,4.24
2019-03-10T00:32:11.841Z,4.24
2019-03-10T00:33:11.839Z,4.32
2019-03-10T00:34:11.812Z,4.32
2019-03-10T00:35:11.807Z,4.24
2019-03-10T00:36:11.783Z,4.26
2019-03-10T00:37:11.771Z,4.27
2019-03-10T00:38:11.755Z,4.29
2019-03-10T00:39:11.754Z,4.29
2019-03-10T00:40:11.733Z,4.3
2019-03-10T00:41:11.716Z,4.33
2019-03-10T00:42:11.693Z,4.4
2019-03-10T00:43:11.679Z,4.44
2019-03-10T00:44:11.664Z,4.36
2019-03-10T00:45:11.653Z,4.4
2019-03-10T00:46:11.634Z,4.36
2019-03-10T00:47:11.622Z,4.41
2019-03-10T00:48:11.612Z,4.41
2019-03-10T00:49:11.595Z,4.37
2019-03-10T00:50:11.576Z,4.41
2019-03-10T00:51:11.563Z,4.44
2019-03-10T00:52:11.556Z,4.33
2019-03-10T00:53:11.534Z,4.4
2019-03-10T00:54:11.525Z,4.36
2019-03-10T00:55:11.519Z,4.33
2019-03-10T00:56:11.490Z,4.37
2019-03-10T00:57:11.238Z,4.41
2019-03-10T00:58:11.461Z,4.34
2019-03-10T00:59:11.451Z,4.36
2019-03-10T01:00:11.432Z,4.27
2019-03-10T01:01:11.178Z,4.22
2019-03-10T01:02:11.407Z,4.27
2019-03-10T01:03:11.416Z,4.29
2019-03-10T01:04:11.388Z,4.23
2019-03-10T01:05:11.360Z,4.26
2019-03-10T01:06:11.370Z,4.24
2019-03-10T01:07:11.334Z,4.23
2019-03-10T01:08:11.314Z,4.23
2019-03-10T01:09:11.297Z,4.29
2019-03-10T01:10:11.285Z,4.22
2019-03-10T01:11:11.268Z,4.26
2019-03-10T01:12:11.254Z,4.3
2019-03-10T01:13:11.004Z,4.23
2019-03-10T01:14:11.229Z,4.22
2019-03-10T01:15:11.211Z,4.23
2019-03-10T01:16:11.202Z,4.16
2019-03-10T01:17:11.180Z,4.12
2019-03-10T01:18:11.164Z,4.16
2019-03-10T01:19:11.154Z,4.24
2019-03-10T01:20:11.173Z,4.15
2019-03-10T01:21:11.134Z,4.18
2019-03-10T01:22:11.111Z,4.18
2019-03-10T01:23:11.149Z,4.23
2019-03-10T01:24:11.079Z,4.15
2019-03-10T01:25:11.083Z,4.08
2019-03-10T01:26:11.052Z,4.05
2019-03-10T01:27:11.038Z,4.15
2019-03-10T01:28:11.024Z,4.09
2019-03-10T01:29:11.003Z,4.12
2019-03-10T01:30:10.987Z,4.14
2019-03-10T01:31:10.973Z,4.12
2019-03-10T01:32:10.957Z,4.06
2019-03-10T01:33:10.941Z,4.11
2019-03-10T01:34:10.931Z,4.12
2019-03-10T01:35:10.912Z,4.14
2019-03-10T01:36:10.902Z,4.04
2019-03-10T01:37:10.883Z,4.08
2019-03-10T01:38:10.866Z,4.06
2019-03-10T01:39:10.860Z,4.06
2019-03-10T01:40:10.843Z,4.05
2019-03-10T01:41:10.832Z,4.06
2019-03-10T01:42:10.812Z,4.09
2019-03-10T01:43:10.794Z,4.02
2019-03-10T01:44:10.784Z,4.06
2019-03-10T01:45:10.762Z,3.96
2019-03-10T01:46:10.750Z,4.06
2019-03-10T01:47:10.736Z,3.91
2019-03-10T01:48:10.720Z,3.96
2019-03-10T01:49:10.705Z,3.97
2019-03-10T01:50:10.694Z,3.94
2019-03-10T01:51:10.675Z,3.9
2019-03-10T01:52:10.658Z,3.94
2019-03-10T01:53:10.665Z,3.93
2019-03-10T01:54:10.567Z,3.98
2019-03-10T01:55:10.616Z,3.94
2019-03-10T01:56:10.614Z,3.88
2019-03-10T01:57:10.583Z,3.87
2019-03-10T01:58:10.578Z,3.93
2019-03-10T01:59:10.553Z,3.86
2019-03-10T02:00:10.542Z,3.9
2019-03-10T02:01:10.536Z,3.94
2019-03-10T02:02:10.513Z,3.87
2019-03-10T02:03:10.492Z,3.86
2019-03-10T02:04:10.478Z,3.93
2019-03-10T02:05:10.467Z,3.9
2019-03-10T02:06:10.450Z,3.91
2019-03-10T02:07:10.434Z,4
2019-03-10T02:08:10.177Z,3.97
2019-03-10T02:09:10.411Z,3.98
2019-03-10T02:10:10.390Z,3.94
2019-03-10T02:11:10.374Z,3.93
2019-03-10T02:12:10.359Z,4
2019-03-10T02:13:10.342Z,3.93
2019-03-10T02:14:10.329Z,3.93
2019-03-10T02:15:10.313Z,3.91
2019-03-10T02:16:10.297Z,3.9
2019-03-10T02:17:10.283Z,3.88
2019-03-10T02:18:10.265Z,3.9
2019-03-10T02:19:10.288Z,3.91
2019-03-10T02:20:10.252Z,3.86
2019-03-10T02:21:10.226Z,3.93
2019-03-10T02:22:10.206Z,3.86
2019-03-10T02:23:10.192Z,3.8
2019-03-10T02:24:10.185Z,3.75
2019-03-10T02:25:10.161Z,3.73
2019-03-10T02:26:10.152Z,3.73
2019-03-10T02:27:10.131Z,3.83
2019-03-10T02:28:10.127Z,3.84
2019-03-10T02:29:10.103Z,3.79
2019-03-10T02:30:10.090Z,3.78
2019-03-10T02:31:10.111Z,3.76
2019-03-10T02:32:10.068Z,3.75
2019-03-10T02:33:10.048Z,3.72
2019-03-10T02:34:10.034Z,3.72
2019-03-10T02:35:10.028Z,3.75
2019-03-10T02:36:10.009Z,3.72
2019-03-10T02:37:09.992Z,3.75
2019-03-10T02:38:09.971Z,3.68
2019-03-10T02:39:09.710Z,3.69
2019-03-10T02:40:09.957Z,3.66
2019-03-10T02:41:09.930Z,3.61
2019-03-10T02:42:09.957Z,3.7
2019-03-10T02:43:09.894Z,3.72
2019-03-10T02:44:09.900Z,3.76
2019-03-10T02:45:09.627Z,3.7
2019-03-10T02:46:09.850Z,3.72
2019-03-10T02:47:09.837Z,3.68
2019-03-10T02:48:09.841Z,3.66
2019-03-10T02:49:09.806Z,3.7
2019-03-10T02:50:09.796Z,3.75
2019-03-10T02:51:09.805Z,3.69
2019-03-10T02:52:09.761Z,3.65
2019-03-10T02:53:09.768Z,3.7
2019-03-10T02:54:09.772Z,3.68
2019-03-10T02:55:09.730Z,3.61
2019-03-10T02:56:09.702Z,3.65
2019-03-10T02:57:09.685Z,3.69
2019-03-10T02:58:09.674Z,3.66
2019-03-10T02:59:09.667Z,3.73
2019-03-10T03:00:09.636Z,3.66
2019-03-10T03:01:09.633Z,3.72
2019-03-10T03:02:09.613Z,3.69
2019-03-10T03:03:09.655Z,3.73
2019-03-10T03:04:09.572Z,3.76
2019-03-10T03:05:09.565Z,3.72
2019-03-10T03:06:09.549Z,3.73
2019-03-10T03:07:09.551Z,3.79
2019-03-10T03:08:09.544Z,3.78
2019-03-10T03:09:09.549Z,3.83
2019-03-10T03:10:09.488Z,3.84
2019-03-10T03:11:09.490Z,3.83
2019-03-10T03:12:09.451Z,3.84
2019-03-10T03:13:09.446Z,3.84
2019-03-10T03:14:09.428Z,3.88
2019-03-10T03:15:09.428Z,3.94
2019-03-10T03:16:09.433Z,3.87
2019-03-10T03:17:09.384Z,3.88
2019-03-10T03:18:09.386Z,3.87
2019-03-10T03:19:09.355Z,3.91
2019-03-10T03:20:09.096Z,3.91
2019-03-10T03:21:09.337Z,3.87
2019-03-10T03:22:09.305Z,3.84
2019-03-10T03:23:09.293Z,3.83
2019-03-10T03:24:09.291Z,3.9
2019-03-10T03:25:09.261Z,3.91
2019-03-10T03:26:09.241Z,3.91
2019-03-10T03:27:09.267Z,3.87
2019-03-10T03:28:09.214Z,3.9
2019-03-10T03:29:09.198Z,3.88
2019-03-10T03:30:09.204Z,3.94
2019-03-10T03:31:09.206Z,3.87
2019-03-10T03:32:09.166Z,3.83
2019-03-10T03:33:08.914Z,3.97
2019-03-10T03:34:09.168Z,4
2019-03-10T03:35:09.117Z,3.97
2019-03-10T03:36:09.109Z,3.93
2019-03-10T03:37:09.075Z,3.94
2019-03-10T03:38:09.071Z,3.93
2019-03-10T03:39:08.568Z,3.96
2019-03-10T03:40:09.045Z,3.98
2019-03-10T03:41:09.024Z,4.08
2019-03-10T03:42:08.998Z,4
2019-03-10T03:43:08.987Z,4.11
2019-03-10T03:44:08.985Z,4.05
2019-03-10T03:45:08.952Z,4.05
2019-03-10T03:46:08.943Z,4
2019-03-10T03:47:08.939Z,4
2019-03-10T03:48:08.909Z,4.05
2019-03-10T03:49:08.898Z,4.08
2019-03-10T03:50:08.913Z,4.11
2019-03-10T03:51:08.875Z,4.16
2019-03-10T03:52:08.938Z,4.08
2019-03-10T03:53:08.843Z,4.05
2019-03-10T03:54:08.832Z,4.06
2019-03-10T03:55:08.805Z,4.09
2019-03-10T03:56:08.813Z,4.08
2019-03-10T03:57:08.774Z,3.97
2019-03-10T03:58:08.778Z,4.02
2019-03-10T03:59:08.771Z,3.98
2019-03-10T04:00:09.035Z,4.04
2019-03-10T04:01:08.731Z,4.02
2019-03-10T04:02:08.697Z,4.02
2019-03-10T04:03:08.690Z,4
2019-03-10T04:04:08.715Z,4.05
2019-03-10T04:05:08.664Z,4
2019-03-10T04:06:08.661Z,4.04
2019-03-10T04:07:08.629Z,3.98
2019-03-10T04:08:08.606Z,4.06
2019-03-10T04:09:08.674Z,3.98
2019-03-10T04:10:08.579Z,4.02
2019-03-10T04:11:08.566Z,3.96
2019-03-10T04:12:08.570Z,3.93
2019-03-10T04:13:08.538Z,3.94
2019-03-10T04:14:08.528Z,3.94
2019-03-10T04:15:08.518Z,3.94
2019-03-10T04:16:08.515Z,3.91
2019-03-10T04:17:08.233Z,3.91
2019-03-10T04:18:08.465Z,3.97
2019-03-10T04:19:08.449Z,3.87
2019-03-10T04:20:08.467Z,3.98
2019-03-10T04:21:08.414Z,3.93
2019-03-10T04:22:08.398Z,3.86
2019-03-10T04:23:08.379Z,3.86
2019-03-10T04:24:08.373Z,3.94
2019-03-10T04:25:08.110Z,3.94
2019-03-10T04:26:08.353Z,3.97
2019-03-10T04:27:08.327Z,3.98
2019-03-10T04:28:08.341Z,3.97
2019-03-10T04:29:08.340Z,3.91
2019-03-10T04:30:08.280Z,3.93
2019-03-10T04:31:08.279Z,4.05
2019-03-10T04:32:08.248Z,4.02
2019-03-10T04:33:08.230Z,4.08
2019-03-10T04:34:08.222Z,4.11
2019-03-10T04:35:08.207Z,4.08
2019-03-10T04:36:07.995Z,4.15
2019-03-10T04:37:08.187Z,4.18
2019-03-10T04:38:08.155Z,4.26
2019-03-10T04:39:08.140Z,4.24
2019-03-10T04:40:08.134Z,4.27
2019-03-10T04:41:08.105Z,4.27
2019-03-10T04:42:08.096Z,4.2
2019-03-10T04:43:08.098Z,4.23
2019-03-10T04:44:08.075Z,4.24
2019-03-10T04:45:08.053Z,4.16
2019-03-10T04:46:08.100Z,4.18
2019-03-10T04:47:08.017Z,4.18
2019-03-10T04:48:08.008Z,4.15
2019-03-10T04:49:07.991Z,4.2
2019-03-10T04:50:07.733Z,4.15
2019-03-10T04:51:07.974Z,4.22
2019-03-10T04:52:07.944Z,4.18
2019-03-10T04:53:07.932Z,4.16
2019-03-10T04:54:07.920Z,4.09
2019-03-10T04:55:07.903Z,4.08
2019-03-10T04:56:07.892Z,4.15
2019-03-10T04:57:07.875Z,4.11
2019-03-10T04:58:07.867Z,4.22
2019-03-10T04:59:07.840Z,4.16
2019-03-10T05:00:07.829Z,4.14
2019-03-10T05:01:07.812Z,4.16
2019-03-10T05:02:07.793Z,4.22
2019-03-10T05:03:07.787Z,4.18
2019-03-10T05:04:07.771Z,4.18
2019-03-10T05:05:07.756Z,4.26
2019-03-10T05:06:07.752Z,4.23
2019-03-10T05:07:07.728Z,4.26
2019-03-10T05:08:07.706Z,4.33
2019-03-10T05:09:07.695Z,4.27
2019-03-10T05:10:07.675Z,4.27
2019-03-10T05:11:07.662Z,4.3
2019-03-10T05:12:07.650Z,4.42
2019-03-10T05:13:07.397Z,4.41
2019-03-10T05:14:07.622Z,4.45
2019-03-10T05:15:07.604Z,4.48
2019-03-10T05:16:07.593Z,4.48
2019-03-10T05:17:07.576Z,4.47
2019-03-10T05:18:07.568Z,4.47
2019-03-10T05:19:07.547Z,4.45
2019-03-10T05:20:07.531Z,4.63
2019-03-10T05:21:07.516Z,4.63
2019-03-10T05:22:07.508Z,4.67
2019-03-10T05:23:07.487Z,4.67
2019-03-10T05:24:07.469Z,4.73
2019-03-10T05:25:07.458Z,4.8
2019-03-10T05:26:07.448Z,4.86
2019-03-10T05:27:07.425Z,4.92
2019-03-10T05:28:07.411Z,4.94
2019-03-10T05:29:07.413Z,5
2019-03-10T05:30:07.394Z,5.09
2019-03-10T05:31:07.368Z,5
2019-03-10T05:32:07.353Z,5.09
2019-03-10T05:33:07.336Z,5
2019-03-10T05:34:07.323Z,5.02
2019-03-10T05:35:07.311Z,5
2019-03-10T05:36:07.356Z,5.07
2019-03-10T05:37:07.294Z,5.09
2019-03-10T05:38:07.271Z,5.06
2019-03-10T05:39:07.503Z,5.1
2019-03-10T05:40:07.241Z,5.09
2019-03-10T05:41:07.261Z,5.09
2019-03-10T05:42:07.207Z,5.03
2019-03-10T05:43:07.197Z,5.06
2019-03-10T05:44:07.201Z,5
2019-03-10T05:45:07.176Z,5.1
2019-03-10T05:46:07.154Z,5.02
2019-03-10T05:47:07.139Z,5.03
2019-03-10T05:48:07.125Z,5.02
2019-03-10T05:49:07.122Z,5.07
2019-03-10T05:50:07.101Z,5.02
2019-03-10T05:51:07.088Z,5.06
2019-03-10T05:52:07.079Z,5.06
2019-03-10T05:53:07.060Z,5.06
2019-03-10T05:54:07.040Z,5.06
2019-03-10T05:55:07.023Z,5.15
2019-03-10T05:56:07.024Z,5.03
2019-03-10T05:57:06.752Z,5.1
2019-03-10T05:58:06.989Z,5.09
2019-03-10T05:59:06.966Z,5.12
2019-03-10T06:00:06.953Z,5.09
2019-03-10T06:01:06.940Z,5.21
2019-03-10T06:02:06.927Z,5.13
2019-03-10T06:03:06.914Z,5.15
2019-03-10T06:04:06.900Z,5.12
2019-03-10T06:05:08.525Z,5.2
2019-03-10T06:06:06.870Z,5.17
2019-03-10T06:07:06.874Z,5.3
2019-03-10T06:08:06.898Z,5.18
2019-03-10T06:09:06.834Z,5.21
2019-03-10T06:10:06.813Z,5.25
2019-03-10T06:11:06.798Z,5.27
2019-03-10T06:12:06.799Z,5.3
2019-03-10T06:13:06.526Z,5.22
2019-03-10T06:14:06.753Z,5.28
2019-03-10T06:15:06.746Z,5.31
2019-03-10T06:16:06.751Z,5.38
2019-03-10T06:17:06.711Z,5.45
2019-03-10T06:18:17.785Z,5.43
2019-03-10T06:19:06.685Z,5.39
2019-03-10T06:20:06.674Z,5.4
2019-03-10T06:21:06.658Z,5.54
2019-03-10T06:22:06.674Z,5.53
2019-03-10T06:23:06.629Z,5.58
2019-03-10T06:24:06.686Z,5.57
2019-03-10T06:25:06.618Z,5.58
2019-03-10T06:26:06.597Z,5.65
2019-03-10T06:27:06.586Z,5.51
2019-03-10T06:28:06.327Z,5.65
2019-03-10T06:29:06.551Z,5.72
2019-03-10T06:30:06.535Z,5.82
2019-03-10T06:31:06.280Z,5.83
2019-03-10T06:32:06.587Z,5.83
2019-03-10T06:33:06.505Z,5.86
2019-03-10T06:34:06.485Z,5.93
2019-03-10T06:35:06.473Z,5.94
2019-03-10T06:36:06.465Z,6.04
2019-03-10T06:37:06.440Z,6.08
2019-03-10T06:38:06.184Z,6.06
2019-03-10T06:39:06.422Z,6.21
2019-03-10T06:40:06.400Z,6.22
2019-03-10T06:41:06.388Z,6.38
2019-03-10T06:42:06.380Z,6.51
2019-03-10T06:43:06.365Z,6.66
2019-03-10T06:44:06.348Z,6.84
2019-03-10T06:45:06.335Z,6.97
2019-03-10T06:46:06.398Z,7.25
2019-03-10T06:47:06.310Z,7.42
2019-03-10T06:48:06.296Z,7.52
2019-03-10T06:49:06.285Z,7.82
2019-03-10T06:50:06.274Z,7.95
2019-03-10T06:51:06.266Z,8.1
2019-03-10T06:52:06.262Z,8.28
2019-03-10T06:53:06.238Z,8.33
2019-03-10T06:54:06.240Z,8.45
2019-03-10T06:55:06.227Z,8.52
2019-03-10T06:56:06.220Z,8.66
2019-03-10T06:57:06.198Z,8.68
2019-03-10T06:58:06.244Z,8.86
2019-03-10T06:59:06.184Z,8.89
2019-03-10T07:00:06.175Z,8.96
2019-03-10T07:01:06.155Z,8.94
2019-03-10T07:02:06.161Z,8.98
2019-03-10T07:03:05.892Z,9.11
2019-03-10T07:04:06.122Z,9.24
2019-03-10T07:05:06.146Z,9.21
2019-03-10T07:06:06.120Z,9.29
2019-03-10T07:07:06.121Z,9.32
2019-03-10T07:08:05.882Z,9.46
2019-03-10T07:09:06.070Z,9.36
2019-03-10T07:10:06.063Z,9.46
2019-03-10T07:11:06.048Z,9.53
2019-03-10T07:12:06.091Z,9.6
2019-03-10T07:13:06.098Z,9.69
2019-03-10T07:14:06.038Z,9.76
2019-03-10T07:15:06.034Z,9.76
2019-03-10T07:16:06.011Z,9.74
2019-03-10T07:17:05.990Z,9.65
2019-03-10T07:18:05.988Z,9.71
2019-03-10T07:19:06.041Z,9.81
2019-03-10T07:20:05.969Z,9.87
2019-03-10T07:21:05.964Z,9.86
2019-03-10T07:22:05.942Z,9.9
2019-03-10T07:23:05.936Z,9.97
2019-03-10T07:24:05.930Z,9.99
2019-03-10T07:25:05.915Z,10.08
2019-03-10T07:26:05.898Z,10.01
2019-03-10T07:27:07.092Z,10.09
2019-03-10T07:28:05.889Z,10.14
2019-03-10T07:29:05.922Z,10.17
2019-03-10T07:30:05.873Z,10.2
2019-03-10T07:31:05.668Z,10.22
2019-03-10T07:32:05.851Z,10.2
2019-03-10T07:33:05.855Z,10.17
2019-03-10T07:34:05.845Z,10.22
2019-03-10T07:35:05.817Z,10.32
2019-03-10T07:36:05.811Z,10.26
2019-03-10T07:37:05.822Z,10.38
2019-03-10T07:38:05.789Z,10.36
2019-03-10T07:39:05.779Z,10.47
2019-03-10T07:40:05.773Z,10.51
2019-03-10T07:41:05.758Z,10.56
2019-03-10T07:42:05.769Z,10.6
2019-03-10T07:43:05.735Z,10.61
2019-03-10T07:44:05.733Z,10.71
2019-03-10T07:45:05.716Z,10.74
2019-03-10T07:46:05.710Z,10.71
2019-03-10T07:47:05.699Z,10.76
2019-03-10T07:48:05.708Z,10.82
2019-03-10T07:49:05.678Z,10.91
2019-03-10T07:50:05.698Z,10.94
2019-03-10T07:51:05.668Z,11.04
2019-03-10T07:52:05.660Z,11.14
2019-03-10T07:53:05.648Z,11.27
2019-03-10T07:54:05.643Z,11.32
2019-03-10T07:55:05.630Z,11.32
2019-03-10T07:56:05.619Z,11.28
2019-03-10T07:57:05.366Z,11.35
2019-03-10T07:58:05.597Z,11.4
2019-03-10T07:59:05.592Z,11.49
2019-03-10T08:00:05.587Z,11.54
2019-03-10T08:01:05.573Z,11.47
2019-03-10T08:02:05.564Z,11.43
2019-03-10T08:03:05.558Z,11.43
2019-03-10T08:04:05.551Z,11.51
2019-03-10T08:05:05.571Z,11.54
2019-03-10T08:06:05.532Z,11.67
2019-03-10T08:07:05.519Z,11.83
2019-03-10T08:08:05.517Z,11.85
2019-03-10T08:09:05.508Z,11.9
2019-03-10T08:10:05.501Z,11.95
2019-03-10T08:11:05.488Z,11.94
2019-03-10T08:12:05.497Z,11.96
2019-03-10T08:13:05.472Z,11.98
2019-03-10T08:14:05.472Z,12.14
2019-03-10T08:15:05.483Z,12.02
2019-03-10T08:16:05.469Z,12.19
2019-03-10T08:17:05.439Z,12.13
2019-03-10T08:18:05.436Z,12.19
2019-03-10T08:19:05.431Z,12.2
2019-03-10T08:20:05.425Z,12.21
2019-03-10T08:21:05.410Z,12.16
2019-03-10T08:22:05.405Z,12.24
2019-03-10T08:23:05.392Z,12.39
2019-03-10T08:24:05.396Z,12.46
2019-03-10T08:25:05.374Z,12.45
2019-03-10T08:26:05.367Z,12.49
2019-03-10T08:27:05.363Z,12.56
2019-03-10T08:28:06.772Z,12.59
2019-03-10T08:29:05.354Z,12.65
2019-03-10T08:30:05.337Z,12.65
2019-03-10T08:31:05.329Z,12.7
2019-03-10T08:32:05.325Z,12.74
2019-03-10T08:33:05.319Z,12.74
2019-03-10T08:34:05.307Z,12.82
2019-03-10T08:35:05.298Z,12.82
2019-03-10T08:36:05.292Z,12.89
2019-03-10T08:37:05.346Z,12.82
2019-03-10T08:38:05.281Z,12.85
2019-03-10T08:39:05.286Z,12.75
2019-03-10T08:40:05.265Z,12.83
2019-03-10T08:41:05.260Z,12.85
2019-03-10T08:42:05.301Z,12.89
2019-03-10T08:43:05.245Z,13.03
2019-03-10T08:44:05.244Z,13
2019-03-10T08:45:05.230Z,13.07
2019-03-10T08:46:05.220Z,13.15
2019-03-10T08:47:05.216Z,13.15
2019-03-10T08:48:05.208Z,13.28
2019-03-10T08:49:05.202Z,13.38
2019-03-10T08:50:05.201Z,13.52
2019-03-10T08:51:05.188Z,13.62
2019-03-10T08:52:05.176Z,13.69
2019-03-10T08:53:05.175Z,13.73
2019-03-10T08:54:05.169Z,13.73
2019-03-10T08:55:05.372Z,13.71
2019-03-10T08:56:08.291Z,13.77
2019-03-10T08:57:05.162Z,13.75
2019-03-10T08:58:04.897Z,13.79
2019-03-10T08:59:05.129Z,13.88
2019-03-10T09:00:05.134Z,13.79
2019-03-10T09:01:05.117Z,13.87
2019-03-10T09:02:05.121Z,13.88
2019-03-10T09:03:05.106Z,13.88
2019-03-10T09:04:05.227Z,13.95
2019-03-10T09:05:05.091Z,14.09
2019-03-10T09:06:05.086Z,14.09
2019-03-10T09:07:05.077Z,14.02
2019-03-10T09:08:05.076Z,14
2019-03-10T09:09:05.065Z,13.99
2019-03-10T09:10:05.109Z,14
2019-03-10T09:11:05.055Z,13.99
2019-03-10T09:12:05.053Z,13.96
2019-03-10T09:13:05.048Z,14.02
2019-03-10T09:14:05.037Z,14.06
2019-03-10T09:15:05.131Z,14.03
2019-03-10T09:16:05.026Z,14.1
2019-03-10T09:17:05.017Z,14.18
2019-03-10T09:18:05.011Z,14.22
2019-03-10T09:19:05.007Z,14.2
2019-03-10T09:20:05.144Z,14.22
2019-03-10T09:21:05.005Z,14.28
2019-03-10T09:22:05.157Z,14.29
2019-03-10T09:23:04.988Z,14.37
2019-03-10T09:24:04.976Z,14.18
2019-03-10T09:25:05.104Z,14.35
2019-03-10T09:26:04.967Z,14.33
2019-03-10T09:27:04.957Z,14.4
2019-03-10T09:28:04.964Z,14.51
2019-03-10T09:29:04.941Z,14.68
2019-03-10T09:30:05.190Z,14.68
2019-03-10T09:31:04.931Z,14.69
2019-03-10T09:32:04.933Z,14.64
2019-03-10T09:33:04.954Z,14.64
2019-03-10T09:34:04.909Z,14.7
2019-03-10T09:35:05.120Z,14.75
2019-03-10T09:36:04.966Z,14.81
2019-03-10T09:37:04.903Z,14.84
2019-03-10T09:38:06.237Z,14.83
2019-03-10T09:39:04.886Z,14.98
2019-03-10T09:40:05.078Z,14.96
2019-03-10T09:41:04.879Z,15.02
2019-03-10T09:42:04.888Z,14.99
2019-03-10T09:43:04.859Z,14.99
2019-03-10T09:44:06.295Z,14.94
2019-03-10T09:45:05.010Z,14.95
2019-03-10T09:46:04.849Z,14.95
2019-03-10T09:47:04.836Z,14.83
2019-03-10T09:48:04.829Z,14.94
2019-03-10T09:49:04.826Z,14.94
2019-03-10T09:50:04.985Z,14.92
2019-03-10T09:51:04.813Z,14.98
2019-03-10T09:52:04.805Z,15.02
2019-03-10T09:53:04.817Z,15.1
2019-03-10T09:54:04.793Z,15.2
2019-03-10T09:55:05.953Z,15.16
2019-03-10T09:56:04.781Z,15.01
2019-03-10T09:57:04.780Z,14.92
2019-03-10T09:58:04.768Z,14.99
2019-03-10T09:59:04.766Z,15.06
2019-03-10T10:00:04.759Z,15.17
2019-03-10T10:01:04.518Z,15.17
2019-03-10T10:02:04.765Z,15.25
2019-03-10T10:03:04.752Z,15.25
2019-03-10T10:04:04.737Z,15.32
2019-03-10T10:05:04.731Z,15.27
2019-03-10T10:06:04.779Z,15.27
2019-03-10T10:07:04.731Z,15.23
2019-03-10T10:08:04.711Z,15.19
2019-03-10T10:09:04.705Z,15.2
2019-03-10T10:10:04.698Z,15.03
2019-03-10T10:11:04.468Z,14.91
2019-03-10T10:12:15.223Z,14.65
2019-03-10T10:13:04.701Z,14.64
2019-03-10T10:14:04.680Z,14.52
2019-03-10T10:15:04.670Z,14.42
2019-03-10T10:16:04.679Z,14.4
2019-03-10T10:17:04.660Z,14.22
2019-03-10T10:18:04.651Z,14.27
2019-03-10T10:19:04.648Z,14.17
2019-03-10T10:20:04.642Z,13.89
2019-03-10T10:21:04.642Z,13.92
2019-03-10T10:22:04.628Z,13.82
2019-03-10T10:23:04.623Z,13.75
2019-03-10T10:24:04.614Z,13.82
2019-03-10T10:25:04.605Z,13.87
2019-03-10T10:26:04.606Z,13.87
2019-03-10T10:27:04.596Z,13.92
2019-03-10T10:28:04.596Z,13.91
2019-03-10T10:29:04.582Z,13.87
2019-03-10T10:30:04.576Z,13.78
2019-03-10T10:31:04.565Z,13.87
2019-03-10T10:32:04.566Z,13.75
2019-03-10T10:33:04.552Z,13.75
2019-03-10T10:34:04.546Z,13.75
2019-03-10T10:35:04.541Z,13.73
2019-03-10T10:36:04.291Z,13.66
2019-03-10T10:37:04.524Z,13.66
2019-03-10T10:38:04.518Z,13.52
2019-03-10T10:39:04.518Z,13.62
2019-03-10T10:40:04.539Z,13.6
2019-03-10T10:41:04.496Z,13.66
2019-03-10T10:42:04.527Z,13.67
2019-03-10T10:43:04.481Z,13.77
2019-03-10T10:44:04.479Z,13.77
2019-03-10T10:45:04.472Z,13.85
2019-03-10T10:46:04.462Z,13.88
2019-03-10T10:47:04.452Z,13.99
2019-03-10T10:48:04.468Z,14.07
2019-03-10T10:49:04.472Z,13.97
2019-03-10T10:50:04.450Z,14.1
2019-03-10T10:51:04.463Z,14.09
2019-03-10T10:52:04.440Z,14.1
2019-03-10T10:53:04.427Z,14.17
2019-03-10T10:54:04.438Z,14
2019-03-10T10:55:04.449Z,13.95
2019-03-10T10:56:04.415Z,13.88
2019-03-10T10:57:04.423Z,13.73
2019-03-10T10:58:05.473Z,13.73
2019-03-10T10:59:04.375Z,13.67
2019-03-10T11:00:04.360Z,13.64
2019-03-10T11:01:04.353Z,13.64
2019-03-10T11:02:04.355Z,13.59
2019-03-10T11:03:04.339Z,13.49
2019-03-10T11:04:04.328Z,13.39
2019-03-10T11:05:04.338Z,13.32
2019-03-10T11:06:04.320Z,13.25
2019-03-10T11:07:04.318Z,13.22
2019-03-10T11:08:04.318Z,13.12
2019-03-10T11:09:05.514Z,13
2019-03-10T11:10:04.292Z,12.93
2019-03-10T11:11:04.279Z,12.82
2019-03-10T11:12:04.279Z,12.6
2019-03-10T11:13:04.265Z,12.46
2019-03-10T11:14:04.264Z,12.17
2019-03-10T11:15:04.275Z,12.13
2019-03-10T11:16:04.241Z,11.83
2019-03-10T11:17:04.241Z,11.85
2019-03-10T11:18:13.745Z,11.78
2019-03-10T11:19:04.217Z,11.7
2019-03-10T11:20:04.230Z,11.69
2019-03-10T11:21:04.207Z,11.8
2019-03-10T11:22:04.216Z,11.76
2019-03-10T11:23:04.188Z,11.8
2019-03-10T11:24:04.180Z,11.95
2019-03-10T11:25:04.173Z,12.02
2019-03-10T11:26:04.235Z,12.13
2019-03-10T11:27:04.150Z,12.23
2019-03-10T11:28:04.145Z,12.27
2019-03-10T11:29:08.411Z,12.24
2019-03-10T11:30:04.129Z,12.32
2019-03-10T11:31:04.118Z,12.29
2019-03-10T11:32:04.129Z,12.31
2019-03-10T11:33:03.868Z,12.31
2019-03-10T11:34:04.099Z,12.41
2019-03-10T11:35:04.109Z,12.45
2019-03-10T11:36:04.077Z,12.45
2019-03-10T11:37:04.168Z,12.46
2019-03-10T11:38:04.066Z,12.57
2019-03-10T11:39:04.058Z,12.68
2019-03-10T11:40:04.044Z,12.65
2019-03-10T11:41:04.036Z,12.68
2019-03-10T11:42:04.028Z,12.67
2019-03-10T11:43:04.024Z,12.64
2019-03-10T11:44:04.012Z,12.6
2019-03-10T11:45:04.002Z,12.6
2019-03-10T11:46:04.034Z,12.68
2019-03-10T11:47:03.996Z,12.65
2019-03-10T11:48:03.982Z,12.68
2019-03-10T11:49:03.989Z,12.62
2019-03-10T11:50:03.970Z,12.56
2019-03-10T11:51:03.967Z,12.56
2019-03-10T11:52:03.952Z,12.49
2019-03-10T11:53:03.937Z,12.49
2019-03-10T11:54:03.930Z,12.46
2019-03-10T11:55:04.080Z,12.5
2019-03-10T11:56:03.916Z,12.37
2019-03-10T11:57:03.915Z,12.45
2019-03-10T11:58:03.908Z,12.31
2019-03-10T11:59:03.892Z,12.23
2019-03-10T12:00:03.888Z,12.19
2019-03-10T12:01:03.881Z,12.17
2019-03-10T12:02:15.062Z,12.17
2019-03-10T12:03:04.169Z,12.12
2019-03-10T12:04:03.859Z,12.19
2019-03-10T12:05:03.845Z,12.14
2019-03-10T12:06:03.833Z,12.14
2019-03-10T12:07:03.829Z,12.1
2019-03-10T12:08:03.826Z,12.13
2019-03-10T12:09:03.811Z,12.19
2019-03-10T12:10:03.811Z,12.14
2019-03-10T12:11:03.800Z,11.99
2019-03-10T12:12:03.819Z,12.05
2019-03-10T12:13:03.780Z,12.04
2019-03-10T12:14:03.769Z,12.09
2019-03-10T12:15:03.762Z,11.98
2019-03-10T12:16:03.752Z,11.96
2019-03-10T12:17:03.757Z,11.99
2019-03-10T12:18:03.738Z,11.99
2019-03-10T12:19:03.751Z,11.95
2019-03-10T12:20:03.724Z,11.79
2019-03-10T12:21:03.714Z,11.78
2019-03-10T12:22:03.702Z,11.82
2019-03-10T12:23:03.704Z,11.79
2019-03-10T12:24:03.721Z,11.75
2019-03-10T12:25:03.678Z,11.91
2019-03-10T12:26:03.670Z,11.99
2019-03-10T12:27:03.660Z,12.04
2019-03-10T12:28:03.651Z,12.12
2019-03-10T12:29:03.652Z,12.04
2019-03-10T12:30:03.638Z,12.17
2019-03-10T12:31:03.628Z,12.13
2019-03-10T12:32:03.619Z,12.23
2019-03-10T12:33:03.609Z,12.29
2019-03-10T12:34:05.357Z,12.32
2019-03-10T12:35:03.618Z,12.34
2019-03-10T12:36:03.582Z,12.45
2019-03-10T12:37:03.605Z,12.49
2019-03-10T12:38:03.603Z,12.56
2019-03-10T12:39:03.563Z,12.56
2019-03-10T12:40:03.556Z,12.71
2019-03-10T12:41:03.549Z,12.85
2019-03-10T12:42:03.821Z,12.97
2019-03-10T12:43:03.535Z,13.05
2019-03-10T12:44:03.553Z,13.03
2019-03-10T12:45:03.531Z,13.05
2019-03-10T12:46:03.504Z,13.07
2019-03-10T12:47:03.497Z,13.11
2019-03-10T12:48:03.492Z,13.19
2019-03-10T12:49:03.484Z,13.26
2019-03-10T12:50:03.724Z,13.15
2019-03-10T12:51:03.469Z,13.19
2019-03-10T12:52:03.463Z,13.22
2019-03-10T12:53:03.461Z,13.28
2019-03-10T12:54:03.203Z,13.19
2019-03-10T12:55:03.440Z,13.3
2019-03-10T12:56:03.432Z,13.28
2019-03-10T12:57:03.429Z,13.3
2019-03-10T12:58:03.452Z,13.33
2019-03-10T12:59:03.409Z,13.38
2019-03-10T13:00:03.411Z,13.33
2019-03-10T13:01:10.757Z,13.38
2019-03-10T13:02:03.387Z,13.45
2019-03-10T13:03:03.384Z,13.42
2019-03-10T13:04:04.112Z,13.2
2019-03-10T13:05:03.378Z,13.28
2019-03-10T13:06:03.388Z,13.2
2019-03-10T13:07:03.352Z,13.28
2019-03-10T13:08:03.343Z,13.15
2019-03-10T13:09:03.346Z,13.15
2019-03-10T13:10:03.329Z,13.1
2019-03-10T13:11:03.351Z,13.07